Bejelentkezés
MINDENAUTO.HU

MINDEN
AUTÓ

autó

Info

MINDENAUTO.HU

MINDEN AUTÓ - Eladó használt és új gépjárművek, autók

Magyarországi új és használt járművek képes listája, ingyenes autó hirdetési lehetőség. Autó apróhirdetés. Járművek, autók, motorok, tehergépjárművek. Eladó Suzuki, Opel, Fiat, Mercedes, BMW, Audi, Nissan. Új és használtan importált kedvezményes áru autók. Autólízing, hitelnyújtás. Használtautó hu, minden eladó jármű hirdetések, hirdetésfeladás. Járműadatbázis, motor, haszongépjármű, busz, terepjáró és teherautó kínálat is.

Legújabb twittek

Amire nem vágysz vasárnap reggel (sem): vérben fekvő motoros. Csak a szemem sarkából láttam (már vagy 5 autó ott vo… https://t.co/P9w5rrDBEN

Minden elektromos autó akkumulátort újrahasznosít az USA https://t.co/dDLk9NLdT7 @ecarshu által

Auto meleleh https://t.co/9qG5Eu6lmr

@jyjellies @ncitybase_ auto kesemutan

Jáááj, itt a vihar előszele, és nem tudom becsuktam-e a kocsiajtót, de férj alszik, én félek kimenni, szóval nagy v… https://t.co/1nHfc8zzDQ

Megnézve: S05 | E18 of A mi kis falunk! #ourlittlevillage https://t.co/aixddNZm7L #tvtime https://t.co/SgXKvoaSxW

EGKR 122050Z AUTO 35003KT 9999 NCD 15/11 Q1025=

Nézd meg a műsorterjesztésemet a PlayStation 4-ről! #PS4live (Grand Theft Auto V) live at https://t.co/MbbCmHmMjP

Nézd meg a műsorterjesztésemet a PlayStation 4-ről! #PS4live (Grand Theft Auto V) live at https://t.co/sl6DhTeyqr

EGKR 121950Z AUTO 31003KT 9999 NCD 19/11 Q1025=

@fahmisetiawan23 auto nyangoni

@auto_moto_pl Urban Legend

EGKR 121850Z AUTO 32003KT 9999 NCD 22/11 Q1024=

@Pekotibi @hvg_hu Vilagos mert Tarlos alatt nem voltak dugok… El kell fogadni, hogy mint minden vilagvarosban, Buda… https://t.co/NeOxHUFz1y

Az autó eladása sem egy leányálom.

Jézusom, ezt a jármű irányítást ki gondolta elfogadhatónak? A 'W' az előre, de mindig amerre nézel? What?🙃 https://t.co/QDXUaqiWKH

Index - Belföld - Négy jármű ütközött egy ittas sofőr miatt https://t.co/J0JbYhTrxI

@gradedtv_ Ugyis kiveszik compbol. Nem a season hanem az item/jarmu

@szucs_attila Szolid jármű. Láttam hasonlót pár hete, az hibrid volt, gyanítom a fogyasztás így is szemmel látható 😀

@police_HU Jó mondjuk a tweet elég... Kétértelmű lett. Nem a jármű elvitelének megakadályozása miatt, hanem annak f… https://t.co/bVX3Dntieg

A 9 évnél fiatalabb használt autók annyira megdrágultak, hogy az áruk eléri egy kisebb kategóriájú új jármű árát, e… https://t.co/p6m0WK7f9t

RT @Magyar_Epitok: A naponta mintegy 8000 jármű által igénybe vett csomópont átépítése várhatóan az év végére fejeződik be. #MagyarKözút #…

Keresés

Rólunk

Magyarországi új és használt járművek képes listája, ingyenes autó hirdetési lehetőség. Autó apróhirdetés. Járművek, autók, motorok, tehergépjárművek. Eladó Suzuki, Opel, Fiat, Mercedes, BMW, Audi, Nissan. Új és használtan importált kedvezményes áru autók. Autólízing, hitelnyújtás. Használtautó hu, minden eladó jármű hirdetések, hirdetésfeladás. Járműadatbázis, motor, haszongépjármű, busz, terepjáró és teherautó kínálat is.
Kapcsolat

Hírek

Renault Zoe hatótáv-rekord – Autó-Motor  Autó-Motor A Geely új formavilágában helyet kapnak az önvezető autók érzékelői  Autó-Motor Gyári kémfotókon az új Maserati GranTurismo – Autó-Motor  Autó-Motor Árokba csapódott egy autó Leveleken  Szabolcs Online Miért haldoklik a valóban vezető nélküli autók álma  Computerworld Online
Autósok, figyelem: balesetek miatt több autópályán is nagy a dugó - Napi.hu  Napi.hu Araszol a forgalom az M7-esen és az M5-ösön, kilométeres a dugó az M0-s autótúton  hvg.hu Vádat emeltek egy mezőberényi férfi ellen, aki súlyos sérüléssel járó balesetet okozott  Körös Hírcentrum Fának hajtott egy autó a 44-es főúton  Körös Hírcentrum Három autó ütközött össze Kiskunhalason | BAON  BAON.hu Több ezer autót is visszahívhat a Porsche  Autopro.hu Kettészakadt egy traktor Kapuváron  Index.hu Súlyos buszbaleset történt Pakisztánban, sok zarándok meghalt  BEOL.hu Kerpel-Fronius: Budapest infrastruktúrája egyszerűen nem bír el ennyi autót  ATV Bőröndben próbált átcsempészni fajtatiszta kutyakölyköket egy szerb férfi - videó  Origo Elon Musk bemutatta a három motoros, „őrült gyors” Teslát  hvg.hu Mobilitás - Dacia Spring és EV100 lökést adhat végre az elektromos autók terjedésének  NRGreport Lángolt, aztán robbant egy daruskocsi az M0-son  Vezess Ismét ezer darabbal nőtt a zöld rendszámos autók száma  Alapjárat EU autóipari visszahívások 2021. 23. hetében  Vezess